Time;durP1;ratioP1;P1;durP2;ratioP2;P2;SDS_P1;SDS_P2;PMS_P1;PMS_P2;Temp;Humidity;BMP_temperature;BMP_pressure;BME280_temperature;BME280_humidity;BME280_pressure;Samples;Min_cycle;Max_cycle;Signal;HPM_P1;HPM_P2
2022/05/23 00:00:03;;;;;;;14.65;4.55;;;;;;;25.31;50.39;97720.06;5032800;28;20111;-48
2022/05/23 00:02:28;;;;;;;12.93;5.25;;;;;;;25.30;50.28;97724.66;5032753;28;20434;-49
2022/05/23 00:04:54;;;;;;;12.65;4.70;;;;;;;25.37;50.32;97732.22;5032575;28;20032;-49
2022/05/23 00:07:35;;;;;;;14.77;5.38;;;;;;;25.46;50.08;97737.56;5032328;28;20030;-49
2022/05/23 00:10:01;;;;;;;13.27;4.60;;;;;;;25.47;49.61;97733.75;5032625;28;20036;-49
2022/05/23 00:12:27;;;;;;;10.75;4.40;;;;;;;25.39;49.48;97738.03;5032547;28;20021;-49
2022/05/23 00:14:53;;;;;;;13.38;4.90;;;;;;;25.27;49.76;97735.25;5032401;28;20028;-50
2022/05/23 00:17:20;;;;;;;16.65;5.22;;;;;;;25.23;49.95;97734.31;5032144;28;20041;-49
2022/05/23 00:19:47;;;;;;;18.10;5.80;;;;;;;25.31;49.78;97712.00;5014709;28;20060;-48
2022/05/23 00:22:14;;;;;;;14.45;4.72;;;;;;;25.39;49.35;97721.16;5032346;28;20037;-49
2022/05/23 00:24:44;;;;;;;11.27;5.28;;;;;;;25.30;49.37;97729.25;5032235;28;20021;-49
2022/05/23 00:27:13;;;;;;;12.85;4.53;;;;;;;25.27;49.14;97752.16;5032357;28;20029;-48
2022/05/23 00:29:40;;;;;;;14.23;5.10;;;;;;;25.21;49.23;97769.56;5032237;28;20060;-48
2022/05/23 00:37:35;;;;;;;13.15;4.40;;;;;;;25.21;48.81;97745.38;5032181;28;19920;-47
2022/05/23 00:40:00;;;;;;;8.05;4.13;;;;;;;25.27;48.29;97740.63;5032072;28;20407;-48
2022/05/23 00:45:16;;;;;;;17.20;4.80;;;;;;;25.23;47.94;97740.50;5032275;28;20119;-47
2022/05/23 00:47:42;;;;;;;11.63;3.67;;;;;;;25.18;47.23;97721.03;5031998;28;20517;-47
2022/05/23 00:50:10;;;;;;;15.98;4.57;;;;;;;25.05;47.25;97731.66;5031834;28;20114;-47
2022/05/23 00:52:54;;;;;;;9.32;3.40;;;;;;;24.98;47.21;97723.28;5031940;28;20399;-48
2022/05/23 00:55:25;;;;;;;11.63;4.22;;;;;;;24.85;47.44;97722.34;5031863;28;20297;-47
2022/05/23 00:57:55;;;;;;;7.00;3.35;;;;;;;24.78;47.77;97732.78;5031832;28;20041;-48
2022/05/23 01:00:21;;;;;;;13.80;5.03;;;;;;;24.65;48.23;97733.72;5014065;28;20079;-48
2022/05/23 01:02:53;;;;;;;11.02;4.25;;;;;;;24.55;48.55;97732.16;5031796;28;20021;-47
2022/05/23 01:05:19;;;;;;;12.77;4.10;;;;;;;24.47;48.72;97727.56;5014563;28;20033;-48
2022/05/23 01:07:45;;;;;;;8.73;3.92;;;;;;;24.39;49.08;97725.63;5014004;28;20021;-48
2022/05/23 01:10:11;;;;;;;13.25;5.20;;;;;;;24.31;49.33;97729.91;5031668;28;20479;-48
2022/05/23 01:12:38;;;;;;;19.75;4.40;;;;;;;24.29;49.53;97734.78;5013972;28;20022;-48
2022/05/23 01:15:17;;;;;;;12.23;5.15;;;;;;;24.51;49.59;97733.91;5013911;28;20038;-48
2022/05/23 01:17:43;;;;;;;11.27;4.20;;;;;;;24.64;49.08;97746.34;5031474;28;20045;-48
2022/05/23 01:20:09;;;;;;;16.05;4.25;;;;;;;24.71;48.74;97745.91;5035716;28;20068;-48
2022/05/23 01:22:45;;;;;;;8.23;3.60;;;;;;;24.79;48.51;97737.03;5017969;28;20026;-48
2022/05/23 01:25:40;;;;;;;12.98;4.70;;;;;;;24.85;48.32;97748.38;5035772;28;20084;-48
2022/05/23 01:28:07;;;;;;;17.40;5.25;;;;;;;24.82;48.59;97757.09;5035660;28;20475;-48
2022/05/23 01:30:34;;;;;;;13.30;4.20;;;;;;;24.84;48.82;97755.66;5035573;28;20032;-47
2022/05/23 01:33:02;;;;;;;16.42;4.80;;;;;;;24.95;48.47;97745.41;5035464;28;20087;-48
2022/05/23 01:35:28;;;;;;;8.50;4.00;;;;;;;25.01;48.54;97749.50;5017574;28;20028;-48
2022/05/23 01:37:54;;;;;;;11.50;3.97;;;;;;;24.96;48.48;97736.22;5017641;28;20159;-48
2022/05/23 01:40:20;;;;;;;11.02;3.90;;;;;;;24.83;48.62;97743.34;5001394;28;20030;-49
2022/05/23 01:42:47;;;;;;;11.75;4.30;;;;;;;24.72;48.93;97744.78;5035387;28;20017;-49
2022/05/23 01:45:15;;;;;;;9.52;4.35;;;;;;;24.58;49.29;97747.59;5035261;28;20034;-49
2022/05/23 01:47:41;;;;;;;16.13;4.57;;;;;;;24.48;49.98;97770.13;5035290;28;20068;-49
2022/05/23 01:50:07;;;;;;;19.65;5.65;;;;;;;24.50;50.03;97762.59;5035196;28;20482;-49
2022/05/23 01:52:34;;;;;;;13.23;5.40;;;;;;;24.66;50.10;97768.28;5017460;28;20399;-49
2022/05/23 01:55:00;;;;;;;10.70;4.63;;;;;;;24.84;49.58;97769.06;5035025;28;20026;-49
2022/05/23 01:57:26;;;;;;;10.13;4.65;;;;;;;24.87;49.25;97755.03;5017268;28;20034;-49
2022/05/23 02:02:36;;;;;;;11.10;5.35;;;;;;;24.84;49.76;97755.66;5035060;28;20037;-49
2022/05/23 02:05:03;;;;;;;17.67;5.35;;;;;;;24.90;49.34;97751.69;5034913;28;20414;-50
2022/05/23 02:07:30;;;;;;;9.65;5.32;;;;;;;24.89;49.53;97742.09;5034943;28;20083;-50
2022/05/23 02:09:55;;;;;;;13.40;4.85;;;;;;;24.89;49.64;97755.50;5034889;28;20440;-49
2022/05/23 02:12:21;;;;;;;19.40;5.85;;;;;;;24.93;49.76;97744.91;5017145;28;20033;-49
2022/05/23 02:14:49;;;;;;;8.18;4.35;;;;;;;24.94;49.65;97748.41;5016915;28;20518;-49
2022/05/23 02:17:15;;;;;;;12.90;5.45;;;;;;;24.87;49.73;97746.19;5034439;28;20044;-48
2022/05/23 02:19:41;;;;;;;12.32;4.25;;;;;;;24.86;49.58;97749.97;5034734;28;20064;-49
2022/05/23 02:22:07;;;;;;;10.55;4.20;;;;;;;24.80;49.76;97740.50;5016808;28;20403;-49
2022/05/23 02:24:34;;;;;;;12.27;4.75;;;;;;;24.71;50.22;97735.16;5034615;28;20022;-48
2022/05/23 02:26:59;;;;;;;14.40;4.10;;;;;;;24.72;49.84;97716.03;5034471;28;20034;-49
2022/05/23 02:29:26;;;;;;;16.42;4.18;;;;;;;24.65;49.97;97725.66;5016518;28;20026;-50
2022/05/23 02:31:51;;;;;;;11.23;4.25;;;;;;;24.60;50.34;97721.25;5034443;28;20068;-49
2022/05/23 02:34:18;;;;;;;15.88;5.07;;;;;;;24.52;50.51;97730.09;5034283;28;20021;-49
2022/05/23 02:36:45;;;;;;;10.30;4.55;;;;;;;24.48;50.21;97719.16;5034358;28;20026;-49
2022/05/23 02:39:12;;;;;;;10.75;4.82;;;;;;;24.36;50.45;97705.59;5034496;28;20076;-49
2022/05/23 02:41:38;;;;;;;14.57;4.85;;;;;;;24.25;50.75;97705.13;5034279;28;20033;-49
2022/05/23 02:44:04;;;;;;;12.25;4.75;;;;;;;24.18;50.63;97696.75;5034195;28;20037;-49
2022/05/23 02:46:30;;;;;;;7.80;4.35;;;;;;;24.08;50.67;97705.88;5000073;28;20021;-49
2022/05/23 02:48:56;;;;;;;18.38;4.38;;;;;;;24.01;50.87;97686.81;5034156;28;20442;-49
2022/05/23 02:51:23;;;;;;;8.30;4.80;;;;;;;24.01;51.44;97686.03;5016215;28;20068;-49
2022/05/23 02:53:49;;;;;;;12.45;5.18;;;;;;;23.98;51.32;97692.00;5016182;28;20064;-49
2022/05/23 02:56:16;;;;;;;12.38;4.40;;;;;;;23.99;51.33;97698.94;5033966;28;20021;-48
2022/05/23 02:58:42;;;;;;;13.38;4.80;;;;;;;24.03;51.62;97697.22;5033961;28;20021;-49
2022/05/23 03:01:07;;;;;;;11.40;4.60;;;;;;;24.05;51.42;97690.44;5033846;28;20029;-49
2022/05/23 03:03:33;;;;;;;9.88;4.05;;;;;;;24.02;51.53;97690.25;5033887;28;20510;-48
2022/05/23 03:05:59;;;;;;;10.48;4.70;;;;;;;23.99;51.70;97689.00;5016000;28;20112;-48
2022/05/23 03:08:27;;;;;;;9.88;4.53;;;;;;;24.00;51.22;97687.09;5033762;28;20155;-48
2022/05/23 03:10:59;;;;;;;9.48;4.30;;;;;;;24.04;51.60;97691.53;5033602;28;20025;-48
2022/05/23 03:13:25;;;;;;;13.77;4.68;;;;;;;24.11;51.48;97678.47;5033734;28;20025;-48
2022/05/23 03:15:51;;;;;;;11.48;4.03;;;;;;;24.22;51.14;97680.84;5033634;28;20505;-48
2022/05/23 03:18:17;;;;;;;22.73;5.53;;;;;;;24.27;51.11;97694.09;5033413;28;20049;-48
2022/05/23 03:20:43;;;;;;;13.10;4.13;;;;;;;24.24;50.97;97686.66;5033758;28;20021;-48
2022/05/23 03:28:41;;;;;;;11.60;4.95;;;;;;;24.07;51.01;97669.47;5033727;28;20123;-48
2022/05/23 03:31:06;;;;;;;9.25;4.43;;;;;;;24.04;50.97;97672.75;5033335;28;20044;-47
2022/05/23 03:33:33;;;;;;;13.02;5.43;;;;;;;23.99;51.10;97672.94;5033303;28;20439;-47
2022/05/23 03:35:58;;;;;;;16.55;4.70;;;;;;;23.89;51.24;97659.81;5033117;28;20033;-48
2022/05/23 03:38:24;;;;;;;11.35;5.22;;;;;;;23.81;51.46;97649.88;5033185;28;20021;-47
2022/05/23 03:40:50;;;;;;;12.10;4.38;;;;;;;23.69;51.69;97648.56;5032527;28;20074;-47
2022/05/23 03:43:16;;;;;;;11.43;4.60;;;;;;;23.53;52.04;97645.53;5033076;28;20030;-48
2022/05/23 03:45:42;;;;;;;9.02;4.05;;;;;;;23.39;52.00;97650.19;5033026;28;20026;-48
2022/05/23 03:48:08;;;;;;;8.45;4.15;;;;;;;23.35;51.91;97629.72;5032936;28;20086;-48
2022/05/23 03:50:36;;;;;;;13.93;4.45;;;;;;;23.30;52.17;97652.03;5032959;28;20029;-47
2022/05/23 03:53:03;;;;;;;15.93;5.18;;;;;;;23.24;51.93;97651.41;5032936;28;20029;-48
2022/05/23 03:55:29;;;;;;;7.82;4.18;;;;;;;23.23;52.25;97649.03;5015257;28;20027;-47
2022/05/23 03:57:56;;;;;;;11.68;4.63;;;;;;;23.19;52.14;97651.53;5032891;28;20108;-48
2022/05/23 04:00:21;;;;;;;15.63;5.13;;;;;;;;;;5032777;28;20022;-48
2022/05/23 04:02:47;;;;;;;10.13;4.63;;;;;;;23.25;51.72;97654.88;5014975;28;20037;-48
2022/05/23 04:05:16;;;;;;;15.02;4.15;;;;;;;23.33;51.44;97662.94;5032687;28;20022;-48
2022/05/23 04:07:43;;;;;;;40.13;24.73;;;;;;;23.34;51.98;97666.38;5032545;28;20030;-47
2022/05/23 04:10:16;;;;;;;12.52;4.20;;;;;;;23.36;50.97;97663.41;5032709;28;20037;-48
2022/05/23 04:12:44;;;;;;;13.98;4.50;;;;;;;23.36;50.87;97664.19;5032579;28;20037;-47
2022/05/23 04:15:11;;;;;;;9.80;3.92;;;;;;;23.39;50.57;97665.50;5032595;28;20052;-48
2022/05/23 04:17:37;;;;;;;12.43;4.53;;;;;;;23.37;50.35;97655.06;5032220;28;20080;-48
2022/05/23 04:20:05;;;;;;;7.90;3.60;;;;;;;23.41;49.78;97639.19;5032282;28;20113;-48
2022/05/23 04:22:30;;;;;;;13.48;4.50;;;;;;;23.47;50.03;97649.44;5032438;28;20040;-48
2022/05/23 04:24:56;;;;;;;8.75;3.65;;;;;;;23.62;49.57;97647.44;5014811;28;20029;-48
2022/05/23 04:27:22;;;;;;;13.55;4.90;;;;;;;23.78;49.14;97653.97;5032211;28;20030;-48
2022/05/23 04:29:48;;;;;;;16.70;4.32;;;;;;;23.83;48.80;97648.47;5032331;28;20064;-48
2022/05/23 04:35:13;;;;;;;8.02;3.65;;;;;;;24.11;48.19;97654.34;5032233;28;20104;-48
2022/05/23 04:37:44;;;;;;;11.77;4.05;;;;;;;24.20;47.30;97672.31;5032285;28;20032;-48
2022/05/23 04:40:13;;;;;;;12.45;3.55;;;;;;;24.16;47.38;97664.09;5032073;28;20037;-48
2022/05/23 04:42:38;;;;;;;11.25;5.55;;;;;;;24.23;47.07;97664.44;5032110;28;20104;-49
2022/05/23 04:45:04;;;;;;;19.67;3.53;;;;;;;24.22;46.78;97667.44;5032041;28;20129;-50
2022/05/23 04:50:14;;;;;;;12.70;3.60;;;;;;;24.38;46.87;97678.47;5032020;28;20040;-48
2022/05/23 04:52:40;;;;;;;14.00;5.05;;;;;;;24.46;46.67;97670.41;5031063;28;20014;-47
2022/05/23 04:55:08;;;;;;;9.70;3.95;;;;;;;24.64;46.43;97686.53;5031719;28;20072;-48
2022/05/23 04:57:34;;;;;;;11.25;3.47;;;;;;;24.78;45.37;97689.84;5032318;28;20424;-47
2022/05/23 05:00:01;;;;;;;10.00;3.38;;;;;;;24.84;45.40;97691.25;5031849;28;20033;-48
2022/05/23 05:02:27;;;;;;;13.43;4.07;;;;;;;24.96;44.76;97695.19;5014376;28;20487;-48
2022/05/23 05:04:52;;;;;;;20.77;9.70;;;;;;;25.03;44.38;97709.69;5031755;28;20038;-48
2022/05/23 05:07:18;;;;;;;14.30;4.63;;;;;;;25.06;44.03;97700.22;5031778;28;20053;-47
2022/05/23 05:09:44;;;;;;;9.80;3.08;;;;;;;25.08;43.92;97711.41;5031815;28;20546;-48
2022/05/23 05:12:13;;;;;;;8.07;3.83;;;;;;;24.86;44.37;97705.13;5031738;28;20037;-48
2022/05/23 05:14:40;;;;;;;10.15;3.70;;;;;;;24.85;44.67;97698.19;5031675;28;20028;-48
2022/05/23 05:17:06;;;;;;;7.78;3.83;;;;;;;24.87;44.37;97706.72;5031440;28;20044;-47
2022/05/23 05:19:31;;;;;;;13.05;3.85;;;;;;;24.90;44.46;97702.59;5031774;28;20025;-48
2022/05/23 05:21:57;;;;;;;11.07;4.18;;;;;;;25.04;44.16;97702.44;5013877;28;20025;-47
2022/05/23 05:24:23;;;;;;;15.27;3.58;;;;;;;25.10;43.53;97698.47;5031654;28;20029;-47
2022/05/23 05:26:50;;;;;;;16.92;4.20;;;;;;;25.11;43.45;97705.41;5031628;28;20076;-48
2022/05/23 05:29:15;;;;;;;7.65;3.00;;;;;;;25.18;43.29;97716.44;5031575;28;20018;-47
2022/05/23 05:31:45;;;;;;;12.90;3.33;;;;;;;25.31;43.05;97710.13;5031548;28;20033;-48
2022/05/23 05:34:18;;;;;;;13.68;4.20;;;;;;;25.25;43.00;97711.41;5031628;28;20025;-48
2022/05/23 05:36:49;;;;;;;9.65;4.22;;;;;;;25.29;43.10;97722.28;5013746;28;20045;-48
2022/05/23 05:39:19;;;;;;;16.10;3.65;;;;;;;25.47;42.37;97723.00;5031552;28;20109;-47
2022/05/23 05:42:09;;;;;;;13.10;5.13;;;;;;;25.61;42.86;97717.44;5031806;28;20112;-47
2022/05/23 05:44:41;;;;;;;9.43;4.80;;;;;;;25.61;42.34;97707.47;5031376;28;20041;-48
2022/05/23 05:47:11;;;;;;;11.52;4.30;;;;;;;25.45;42.56;97717.97;5031405;28;20029;-47
2022/05/23 05:49:40;;;;;;;10.57;3.97;;;;;;;25.40;42.80;97706.63;5031392;28;20022;-48
2022/05/23 05:52:12;;;;;;;8.70;3.58;;;;;;;25.52;42.78;97687.94;5013625;28;20020;-47
2022/05/23 05:54:39;;;;;;;9.93;4.22;;;;;;;26.38;41.42;97704.69;5031364;28;20411;-48
2022/05/23 05:57:07;;;;;;;8.48;3.15;;;;;;;26.68;40.37;97715.38;5031144;28;20021;-48
2022/05/23 05:59:34;;;;;;;15.65;4.53;;;;;;;26.26;40.87;97707.31;5031202;28;20071;-48
2022/05/23 06:01:59;;;;;;;7.45;3.58;;;;;;;26.09;41.38;97700.91;5031245;28;20030;-48
2022/05/23 06:04:25;;;;;;;12.07;4.25;;;;;;;26.44;41.15;97707.94;5032455;28;20491;-47
2022/05/23 06:12:20;;;;;;;11.15;3.63;;;;;;;30.34;33.84;97687.19;5034889;28;20036;-48
2022/05/23 06:14:46;;;;;;;5.57;2.80;;;;;;;30.66;32.85;97680.47;5034729;28;20096;-48
2022/05/23 06:17:12;;;;;;;12.75;3.08;;;;;;;30.74;32.90;97678.69;5034409;28;20045;-48
2022/05/23 06:19:44;;;;;;;10.90;3.20;;;;;;;30.17;32.99;97688.38;5034684;28;20513;-47
2022/05/23 06:22:10;;;;;;;9.07;3.00;;;;;;;29.79;33.33;97689.88;5034656;28;20526;-47
2022/05/23 06:24:37;;;;;;;12.10;3.97;;;;;;;29.39;34.31;97688.13;5034642;28;20091;-47
2022/05/23 06:27:06;;;;;;;10.38;3.47;;;;;;;29.44;34.46;97693.28;5034518;28;20038;-48
2022/05/23 06:29:33;;;;;;;11.88;3.85;;;;;;;30.05;33.88;97681.94;5016740;28;20034;-48
2022/05/23 06:32:02;;;;;;;9.13;2.95;;;;;;;31.57;31.61;97680.97;5034507;28;20026;-48
2022/05/23 06:34:29;;;;;;;10.60;3.20;;;;;;;33.20;29.07;97674.44;5034308;28;20034;-49
2022/05/23 06:36:56;;;;;;;8.27;3.30;;;;;;;34.33;27.39;97674.00;5034380;28;20017;-48
2022/05/23 06:39:22;;;;;;;9.80;3.35;;;;;;;35.30;25.55;97675.06;5034371;28;20025;-48
2022/05/23 06:41:48;;;;;;;9.90;3.63;;;;;;;35.93;24.98;97663.69;5016445;28;20017;-48
2022/05/23 06:44:15;;;;;;;9.35;3.08;;;;;;;36.28;24.63;97675.69;5034186;28;20030;-48
2022/05/23 06:46:41;;;;;;;9.15;3.00;;;;;;;36.50;24.09;97685.34;5016387;28;20449;-48
2022/05/23 06:49:08;;;;;;;15.50;3.35;;;;;;;36.84;23.64;97682.06;5034109;28;20104;-49
2022/05/23 06:51:35;;;;;;;22.45;4.32;;;;;;;38.12;22.24;97701.34;5034149;28;20518;-49
2022/05/23 06:54:01;;;;;;;8.07;2.45;;;;;;;38.92;21.76;97687.44;5033985;28;20032;-49
2022/05/23 06:56:28;;;;;;;14.68;4.57;;;;;;;38.87;21.33;97671.44;5016143;28;20030;-48
2022/05/23 06:58:55;;;;;;;11.73;3.88;;;;;;;38.46;21.73;97644.97;5033873;28;20025;-48
2022/05/23 07:01:21;;;;;;;14.48;3.17;;;;;;;38.04;22.38;97649.78;5033862;28;20029;-50
2022/05/23 07:03:47;;;;;;;31.38;4.78;;;;;;;38.24;22.32;97671.88;5033946;28;20410;-48
2022/05/23 07:14:27;;;;;;;17.85;3.58;;;;;;;34.87;25.35;97698.72;5033724;28;20067;-49
2022/05/23 07:16:54;;;;;;;16.95;3.58;;;;;;;34.28;26.01;97702.41;5014504;28;20033;-47
2022/05/23 07:19:21;;;;;;;6.88;3.05;;;;;;;33.71;26.58;97699.34;5033703;28;20033;-48
2022/05/23 07:21:47;;;;;;;11.18;3.63;;;;;;;33.11;26.89;97712.03;5033764;28;20533;-48
2022/05/23 07:24:13;;;;;;;5.95;3.50;;;;;;;32.72;27.60;97723.25;5033536;28;20065;-48
2022/05/23 07:26:39;;;;;;;7.53;2.97;;;;;;;33.43;26.68;97716.97;5033489;28;20030;-48
2022/05/23 07:29:05;;;;;;;16.40;4.30;;;;;;;33.54;26.44;97722.50;5033397;28;20048;-48
2022/05/23 07:31:31;;;;;;;20.20;4.28;;;;;;;32.94;26.49;97729.72;5033457;28;20026;-48
2022/05/23 07:33:57;;;;;;;8.20;3.25;;;;;;;32.06;27.81;97741.00;5033181;28;20025;-48
2022/05/23 07:36:23;;;;;;;19.67;4.38;;;;;;;31.17;28.82;97733.72;5033149;28;20560;-48
2022/05/23 07:38:49;;;;;;;16.27;3.58;;;;;;;30.79;29.29;97738.03;5033308;28;20075;-47
2022/05/23 07:41:15;;;;;;;35.45;6.07;;;;;;;31.16;29.84;97732.13;5015405;28;20030;-48
2022/05/23 07:43:42;;;;;;;17.42;4.18;;;;;;;32.21;27.77;97721.81;5015313;28;20033;-49
2022/05/23 07:46:13;;;;;;;12.77;3.20;;;;;;;33.21;25.45;97716.78;5033061;28;20024;-50
2022/05/23 07:48:48;;;;;;;11.48;2.50;;;;;;;33.43;24.86;97720.47;5033118;28;20029;-48
2022/05/23 07:51:17;;;;;;;22.23;3.83;;;;;;;33.26;25.55;97721.09;5015203;28;20447;-49
2022/05/23 08:01:57;;;;;;;17.50;2.75;;;;;;;34.78;22.45;97659.00;5033085;28;20043;-49
2022/05/23 08:04:25;;;;;;;11.70;2.78;;;;;;;34.14;22.88;97677.84;5032897;28;20119;-49
2022/05/23 08:06:52;;;;;;;10.48;2.70;;;;;;;33.66;23.57;97677.91;5032686;28;20049;-50
2022/05/23 08:09:19;;;;;;;19.05;4.15;;;;;;;32.97;24.44;97666.44;5032887;28;20483;-50
2022/05/23 08:11:52;;;;;;;6.32;2.28;;;;;;;33.76;23.70;97677.19;5032548;28;20022;-49
2022/05/23 08:14:18;;;;;;;5.00;2.15;;;;;;;34.62;22.13;97680.34;5032598;28;20028;-48
2022/05/23 08:16:44;;;;;;;10.23;2.88;;;;;;;34.90;22.59;97684.34;5032444;28;20151;-49
2022/05/23 08:19:10;;;;;;;6.32;2.80;;;;;;;34.72;22.90;97700.66;5032163;28;20547;-49
2022/05/23 08:21:45;;;;;;;8.23;2.97;;;;;;;34.50;23.12;97705.22;5032466;28;20041;-48
2022/05/23 08:24:10;;;;;;;15.07;2.63;;;;;;;34.05;23.70;97694.50;5032729;28;20124;-48
2022/05/23 08:26:36;;;;;;;39.20;3.83;;;;;;;34.05;23.82;97694.50;5032161;28;20096;-48
2022/05/23 08:29:02;;;;;;;19.40;3.80;;;;;;;33.90;23.26;97699.06;5032295;28;20199;-48
2022/05/23 08:31:27;;;;;;;19.80;2.88;;;;;;;33.61;23.95;97692.63;5014628;28;20036;-50
2022/05/23 08:33:53;;;;;;;17.98;3.22;;;;;;;34.07;23.77;97680.47;5032132;28;20022;-48
2022/05/23 08:36:22;;;;;;;16.73;2.88;;;;;;;35.01;22.86;97679.66;5032206;28;20024;-50
2022/05/23 08:38:48;;;;;;;10.93;3.22;;;;;;;34.86;22.67;97672.66;5032142;28;20029;-49
2022/05/23 08:41:42;;;;;;;32.70;4.53;;;;;;;33.68;24.04;97642.94;5032074;28;20025;-50
2022/05/23 08:44:10;;;;;;;33.40;4.25;;;;;;;33.00;24.30;97649.38;5012825;28;20041;-48
2022/05/23 08:46:42;;;;;;;7.90;2.55;;;;;;;32.28;25.42;97652.44;5032103;28;20102;-48
2022/05/23 08:49:24;;;;;;;17.48;2.78;;;;;;;33.21;24.44;97648.03;5031923;28;20032;-48
2022/05/23 08:52:06;;;;;;;61.42;6.25;;;;;;;34.95;23.17;97653.94;5032017;28;20026;-49
2022/05/23 08:54:40;;;;;;;12.07;2.70;;;;;;;36.19;21.29;97648.78;5031950;28;20394;-50
2022/05/23 08:57:18;;;;;;;27.35;5.90;;;;;;;36.76;20.63;97654.00;5031909;28;20030;-49
2022/05/23 08:59:48;;;;;;;55.45;6.80;;;;;;;37.68;19.56;97639.19;5031928;28;20443;-51
2022/05/23 09:02:39;;;;;;;29.77;3.58;;;;;;;38.16;19.27;97636.31;5014063;28;20067;-49
2022/05/23 09:05:36;;;;;;;29.75;3.40;;;;;;;38.77;18.46;97626.50;5031476;28;20034;-49
2022/05/23 09:08:08;;;;;;;22.23;3.05;;;;;;;39.12;18.34;97633.44;5019889;28;20041;-49
2022/05/23 09:10:39;;;;;;;44.22;4.18;;;;;;;39.35;17.80;97618.16;5031709;28;20033;-50
2022/05/23 09:13:07;;;;;;;102.78;9.82;;;;;;;39.28;17.33;97615.50;5014059;28;20207;-49
2022/05/23 09:15:33;;;;;;;109.32;9.93;;;;;;;39.15;17.24;97616.13;5031629;28;20027;-50
2022/05/23 09:18:07;;;;;;;92.90;7.93;;;;;;;39.03;17.93;97615.94;5031351;28;20053;-49
2022/05/23 09:20:36;;;;;;;8.65;2.50;;;;;;;38.24;17.79;97626.06;5031697;28;20029;-50
2022/05/23 09:23:10;;;;;;;6.32;1.90;;;;;;;37.07;18.01;97613.13;5031598;28;20037;-49
2022/05/23 09:25:37;;;;;;;9.77;3.47;;;;;;;35.14;19.49;97604.50;5031559;28;20025;-48
2022/05/23 09:28:20;;;;;;;7.15;3.67;;;;;;;33.28;22.15;97610.00;5031637;28;20523;-48
2022/05/23 09:30:56;;;;;;;10.07;3.05;;;;;;;33.66;22.54;97602.50;5031664;28;20022;-49
2022/05/23 09:33:23;;;;;;;9.88;2.78;;;;;;;33.37;22.66;97606.97;5031700;28;20083;-50
2022/05/23 09:35:55;;;;;;;7.78;2.10;;;;;;;32.84;23.37;97608.09;5031485;28;20105;-47
2022/05/23 09:38:29;;;;;;;5.85;2.20;;;;;;;33.52;22.95;97596.94;5031476;28;20083;-50
2022/05/23 09:40:56;;;;;;;9.65;2.30;;;;;;;33.05;23.52;97599.31;5035249;28;20390;-48
2022/05/23 09:49:15;;;;;;;7.28;2.60;;;;;;;30.88;26.61;97596.13;5035650;28;20052;-48
2022/05/23 09:51:49;;;;;;;47.70;5.95;;;;;;;31.05;26.57;97593.75;5035266;28;20434;-48
2022/05/23 09:54:46;;;;;;;14.27;2.53;;;;;;;31.16;26.41;97585.00;5035235;28;20030;-48
2022/05/23 09:57:41;;;;;;;7.05;2.63;;;;;;;32.11;25.74;97570.44;5017712;28;20384;-48
2022/05/23 10:00:09;;;;;;;;;;;;;;;33.99;24.22;97562.63;5035435;28;20037;-48
2022/05/23 10:02:37;;;;;;;10.38;3.90;;;;;;;35.39;22.34;97560.06;5035030;28;19917;-49
2022/05/23 10:05:06;;;;;;;13.88;6.72;;;;;;;35.85;20.89;97556.44;5034861;28;20044;-49
2022/05/23 10:07:36;;;;;;;14.88;4.07;;;;;;;34.97;21.27;97572.53;5035036;28;20540;-48
2022/05/23 10:10:18;;;;;;;34.88;4.45;;;;;;;33.86;22.51;97577.72;5034827;28;20104;-48
2022/05/23 10:12:44;;;;;;;24.08;3.88;;;;;;;32.96;22.72;97566.22;5034844;28;20414;-50
2022/05/23 10:15:29;;;;;;;23.80;2.88;;;;;;;32.51;24.01;97566.19;5034739;28;20018;-49
2022/05/23 10:18:08;;;;;;;23.45;2.90;;;;;;;32.76;23.94;97550.16;5034560;28;20046;-49
2022/05/23 10:20:40;;;;;;;6.65;2.00;;;;;;;32.80;24.05;97555.59;5016931;28;20033;-49
2022/05/23 10:23:21;;;;;;;14.32;3.00;;;;;;;32.51;23.47;97555.34;5034711;28;20018;-49
2022/05/23 10:26:07;;;;;;;25.67;2.92;;;;;;;32.56;23.54;97557.75;5034649;28;20033;-50
2022/05/23 10:29:04;;;;;;;9.38;3.20;;;;;;;32.58;23.49;97560.09;5016896;28;20029;-48
2022/05/23 10:31:35;;;;;;;18.52;3.95;;;;;;;33.49;22.88;97565.84;5014986;28;20056;-49
2022/05/23 10:34:23;;;;;;;6.20;2.08;;;;;;;35.00;21.29;97550.72;5034493;28;20034;-49
2022/05/23 10:36:53;;;;;;;7.75;2.30;;;;;;;35.49;20.56;97559.25;5034408;28;20112;-49
2022/05/23 10:42:11;;;;;;;7.40;2.97;;;;;;;36.21;18.98;97531.69;5034620;28;20576;-49
2022/05/23 10:44:59;;;;;;;10.43;2.30;;;;;;;35.35;19.97;97542.91;5034320;28;20029;-50
2022/05/23 10:47:54;;;;;;;6.63;2.55;;;;;;;34.46;20.73;97546.41;5034255;28;20036;-50
2022/05/23 10:50:30;;;;;;;3.80;1.83;;;;;;;34.46;20.84;97543.69;5016387;28;20036;-50
2022/05/23 10:53:27;;;;;;;5.03;2.50;;;;;;;34.14;21.11;97550.63;5034186;28;20040;-51
2022/05/23 10:56:11;;;;;;;9.10;2.55;;;;;;;35.02;21.07;97547.63;5033982;28;20040;-50
2022/05/23 10:58:45;;;;;;;4.97;2.20;;;;;;;35.87;19.82;97550.56;5034329;28;20434;-50
2022/05/23 11:01:32;;;;;;;8.52;2.42;;;;;;;36.31;19.93;97557.41;5034253;28;20398;-50
2022/05/23 11:04:16;;;;;;;6.80;2.05;;;;;;;36.70;19.12;97543.47;5033978;28;20457;-51
2022/05/23 11:07:16;;;;;;;5.30;2.10;;;;;;;36.65;18.99;97532.97;5033903;28;20044;-48
2022/05/23 11:09:56;;;;;;;6.70;2.50;;;;;;;35.51;19.84;97521.44;4999827;28;20033;-49
2022/05/23 11:12:44;;;;;;;16.00;2.83;;;;;;;35.21;21.05;97521.91;5034135;28;20395;-49
2022/05/23 11:15:25;;;;;;;6.07;2.00;;;;;;;35.92;20.42;97504.53;5015934;28;20033;-49
2022/05/23 11:17:58;;;;;;;6.78;2.28;;;;;;;35.47;19.91;97515.19;5033240;28;20101;-49
2022/05/23 11:20:36;;;;;;;7.07;2.20;;;;;;;34.18;21.57;97517.94;5033527;28;20057;-48
2022/05/23 11:23:41;;;;;;;5.82;2.10;;;;;;;32.89;23.64;97523.47;5033579;28;20100;-47
2022/05/23 11:26:09;;;;;;;12.52;3.85;;;;;;;31.82;25.12;97523.16;5033543;28;20103;-48
2022/05/23 11:35:10;;;;;;;12.27;2.58;;;;;;;30.07;28.07;97536.25;4972384;28;20038;-50
2022/05/23 11:37:45;;;;;;;10.52;2.85;;;;;;;29.78;28.29;97550.34;4972210;28;20031;-48
2022/05/23 11:40:23;;;;;;;11.98;2.63;;;;;;;29.42;28.38;97573.91;4972281;28;20185;-49
2022/05/23 11:42:49;;;;;;;5.70;2.58;;;;;;;29.19;28.88;97598.84;4972314;28;20089;-48
2022/05/23 11:48:43;;;;;;;10.90;2.88;;;;;;;28.44;30.06;97588.81;4972521;28;20629;-48
2022/05/23 11:51:12;;;;;;;9.65;2.53;;;;;;;28.08;30.75;97587.84;4972099;28;20475;-48
2022/05/23 11:53:55;;;;;;;7.75;3.25;;;;;;;27.82;31.73;97588.22;4972100;28;20511;-48
2022/05/23 11:57:00;;;;;;;7.68;2.97;;;;;;;27.74;31.71;97592.63;4971960;28;20042;-48
2022/05/23 11:59:28;;;;;;;12.38;3.25;;;;;;;27.71;32.06;97598.72;4957799;28;20039;-48
2022/05/23 12:02:12;;;;;;;11.70;2.75;;;;;;;27.73;32.36;97599.16;4980687;28;20392;-47
2022/05/23 12:04:51;;;;;;;19.27;3.28;;;;;;;27.84;32.34;97602.16;5032704;28;20083;-50
2022/05/23 12:07:36;;;;;;;9.77;3.10;;;;;;;28.00;32.16;97608.44;5032620;28;20372;-47
2022/05/23 12:10:28;;;;;;;7.93;2.70;;;;;;;28.17;31.83;97614.66;5032625;28;20040;-47
2022/05/23 12:12:56;;;;;;;8.38;3.13;;;;;;;28.09;32.14;97617.19;5032669;28;20029;-48
2022/05/23 12:15:43;;;;;;;9.68;2.80;;;;;;;28.18;32.18;97595.44;5032547;28;20101;-48
2022/05/23 12:18:24;;;;;;;10.27;2.72;;;;;;;28.40;31.87;97614.94;5032208;28;20045;-48
2022/05/23 12:20:56;;;;;;;13.05;3.15;;;;;;;28.69;31.93;97621.88;5014700;28;20585;-50
2022/05/23 12:23:36;;;;;;;10.98;3.17;;;;;;;29.31;31.39;97637.75;5032508;28;20479;-49
2022/05/23 12:26:11;;;;;;;36.28;4.78;;;;;;;29.94;30.12;97632.25;5014607;28;20034;-49
2022/05/23 12:28:55;;;;;;;15.40;1.90;;;;;;;30.56;29.42;97653.97;5032372;28;20033;-50
2022/05/23 12:31:34;;;;;;;58.83;4.53;;;;;;;31.18;28.65;97659.38;5032378;28;20495;-50
2022/05/23 12:34:02;;;;;;;7.38;1.70;;;;;;;32.08;27.37;97654.56;5014457;28;20095;-49
2022/05/23 12:36:31;;;;;;;11.32;2.30;;;;;;;32.63;27.12;97662.97;5032264;28;20028;-49
2022/05/23 12:39:18;;;;;;;4.97;2.10;;;;;;;32.86;26.57;97649.25;5032173;28;20072;-50
2022/05/23 12:42:02;;;;;;;16.50;1.77;;;;;;;32.56;26.41;97662.88;5032184;28;20032;-49
2022/05/23 12:45:02;;;;;;;18.65;2.08;;;;;;;32.14;27.04;97670.16;5032165;28;20032;-48
2022/05/23 12:47:46;;;;;;;5.10;1.58;;;;;;;32.42;27.16;97669.72;5032083;28;20091;-48